sensor_id;sensor_type;location;lat;lon;timestamp;P1;durP1;ratioP1;P2;durP2;ratioP2
25237;SDS011;13185;50.872;5.306;2022-07-06T00:00:00;3.72;;;1.30;;
25237;SDS011;13185;50.872;5.306;2022-07-06T00:02:25;7.70;;;2.05;;
25237;SDS011;13185;50.872;5.306;2022-07-06T00:04:51;2.78;;;1.60;;
25237;SDS011;13185;50.872;5.306;2022-07-06T00:07:16;4.88;;;1.60;;
25237;SDS011;13185;50.872;5.306;2022-07-06T00:09:42;3.63;;;1.40;;
25237;SDS011;13185;50.872;5.306;2022-07-06T00:12:07;6.25;;;1.83;;
25237;SDS011;13185;50.872;5.306;2022-07-06T00:14:34;3.08;;;1.70;;
25237;SDS011;13185;50.872;5.306;2022-07-06T00:17:00;5.15;;;1.35;;
25237;SDS011;13185;50.872;5.306;2022-07-06T00:19:25;3.92;;;1.27;;
25237;SDS011;13185;50.872;5.306;2022-07-06T00:21:51;3.05;;;1.83;;
25237;SDS011;13185;50.872;5.306;2022-07-06T00:24:16;3.40;;;1.58;;
25237;SDS011;13185;50.872;5.306;2022-07-06T00:26:43;3.22;;;1.27;;
25237;SDS011;13185;50.872;5.306;2022-07-06T00:29:09;3.40;;;1.30;;
25237;SDS011;13185;50.872;5.306;2022-07-06T00:31:35;2.75;;;1.67;;
25237;SDS011;13185;50.872;5.306;2022-07-06T00:34:00;6.60;;;1.58;;
25237;SDS011;13185;50.872;5.306;2022-07-06T00:36:26;5.28;;;1.60;;
25237;SDS011;13185;50.872;5.306;2022-07-06T00:38:52;4.38;;;1.65;;
25237;SDS011;13185;50.872;5.306;2022-07-06T00:41:18;5.88;;;2.38;;
25237;SDS011;13185;50.872;5.306;2022-07-06T00:43:47;4.40;;;1.48;;
25237;SDS011;13185;50.872;5.306;2022-07-06T00:46:17;3.85;;;1.45;;
25237;SDS011;13185;50.872;5.306;2022-07-06T00:48:44;2.42;;;1.40;;
25237;SDS011;13185;50.872;5.306;2022-07-06T00:51:09;3.80;;;1.50;;
25237;SDS011;13185;50.872;5.306;2022-07-06T00:53:36;5.10;;;1.50;;
25237;SDS011;13185;50.872;5.306;2022-07-06T00:56:02;2.70;;;1.40;;
25237;SDS011;13185;50.872;5.306;2022-07-06T00:58:27;3.47;;;1.70;;
25237;SDS011;13185;50.872;5.306;2022-07-06T01:00:53;4.93;;;1.80;;
25237;SDS011;13185;50.872;5.306;2022-07-06T01:03:18;3.45;;;1.55;;
25237;SDS011;13185;50.872;5.306;2022-07-06T01:05:44;3.38;;;1.63;;
25237;SDS011;13185;50.872;5.306;2022-07-06T01:08:09;2.53;;;1.40;;
25237;SDS011;13185;50.872;5.306;2022-07-06T01:10:37;2.75;;;1.45;;
25237;SDS011;13185;50.872;5.306;2022-07-06T01:13:02;5.90;;;1.73;;
25237;SDS011;13185;50.872;5.306;2022-07-06T01:15:28;4.65;;;1.90;;
25237;SDS011;13185;50.872;5.306;2022-07-06T01:17:53;4.40;;;1.30;;
25237;SDS011;13185;50.872;5.306;2022-07-06T01:20:25;2.75;;;1.40;;
25237;SDS011;13185;50.872;5.306;2022-07-06T01:22:52;4.43;;;1.65;;
25237;SDS011;13185;50.872;5.306;2022-07-06T01:25:19;4.60;;;1.80;;
25237;SDS011;13185;50.872;5.306;2022-07-06T01:27:45;3.05;;;1.65;;
25237;SDS011;13185;50.872;5.306;2022-07-06T01:30:16;2.70;;;1.67;;
25237;SDS011;13185;50.872;5.306;2022-07-06T01:32:43;2.35;;;1.52;;
25237;SDS011;13185;50.872;5.306;2022-07-06T01:35:13;5.45;;;1.67;;
25237;SDS011;13185;50.872;5.306;2022-07-06T01:37:41;3.92;;;1.60;;
25237;SDS011;13185;50.872;5.306;2022-07-06T01:40:07;2.85;;;1.63;;
25237;SDS011;13185;50.872;5.306;2022-07-06T01:42:35;4.80;;;2.30;;
25237;SDS011;13185;50.872;5.306;2022-07-06T01:45:01;5.05;;;2.20;;
25237;SDS011;13185;50.872;5.306;2022-07-06T01:47:28;5.05;;;2.08;;
25237;SDS011;13185;50.872;5.306;2022-07-06T01:49:53;3.58;;;1.70;;
25237;SDS011;13185;50.872;5.306;2022-07-06T01:52:21;3.33;;;2.15;;
25237;SDS011;13185;50.872;5.306;2022-07-06T01:54:46;3.38;;;2.08;;
25237;SDS011;13185;50.872;5.306;2022-07-06T01:57:12;4.00;;;1.77;;
25237;SDS011;13185;50.872;5.306;2022-07-06T01:59:38;5.65;;;1.67;;
25237;SDS011;13185;50.872;5.306;2022-07-06T02:02:03;2.83;;;1.65;;
25237;SDS011;13185;50.872;5.306;2022-07-06T02:04:29;4.22;;;1.77;;
25237;SDS011;13185;50.872;5.306;2022-07-06T02:06:55;6.97;;;2.30;;
25237;SDS011;13185;50.872;5.306;2022-07-06T02:09:20;5.53;;;1.70;;
25237;SDS011;13185;50.872;5.306;2022-07-06T02:11:46;2.78;;;1.58;;
25237;SDS011;13185;50.872;5.306;2022-07-06T02:14:14;4.15;;;1.65;;
25237;SDS011;13185;50.872;5.306;2022-07-06T02:16:40;2.83;;;1.60;;
25237;SDS011;13185;50.872;5.306;2022-07-06T02:19:05;3.38;;;1.50;;
25237;SDS011;13185;50.872;5.306;2022-07-06T02:21:31;2.72;;;1.75;;
25237;SDS011;13185;50.872;5.306;2022-07-06T02:23:56;5.20;;;1.92;;
25237;SDS011;13185;50.872;5.306;2022-07-06T02:26:22;4.30;;;2.10;;
25237;SDS011;13185;50.872;5.306;2022-07-06T02:28:49;3.38;;;2.00;;
25237;SDS011;13185;50.872;5.306;2022-07-06T02:31:15;4.00;;;2.05;;
25237;SDS011;13185;50.872;5.306;2022-07-06T02:33:42;5.45;;;2.00;;
25237;SDS011;13185;50.872;5.306;2022-07-06T02:36:09;6.80;;;2.13;;
25237;SDS011;13185;50.872;5.306;2022-07-06T02:38:34;2.25;;;2.00;;
25237;SDS011;13185;50.872;5.306;2022-07-06T02:41:00;3.17;;;1.73;;
25237;SDS011;13185;50.872;5.306;2022-07-06T02:43:26;4.32;;;1.95;;
25237;SDS011;13185;50.872;5.306;2022-07-06T02:45:51;5.35;;;2.33;;
25237;SDS011;13185;50.872;5.306;2022-07-06T02:48:17;3.88;;;1.60;;
25237;SDS011;13185;50.872;5.306;2022-07-06T02:50:47;3.05;;;1.60;;
25237;SDS011;13185;50.872;5.306;2022-07-06T02:53:13;2.70;;;1.67;;
25237;SDS011;13185;50.872;5.306;2022-07-06T02:55:39;4.15;;;1.67;;
25237;SDS011;13185;50.872;5.306;2022-07-06T02:58:05;2.60;;;1.70;;
25237;SDS011;13185;50.872;5.306;2022-07-06T03:00:31;4.15;;;1.63;;
25237;SDS011;13185;50.872;5.306;2022-07-06T03:02:56;5.35;;;2.30;;
25237;SDS011;13185;50.872;5.306;2022-07-06T03:05:22;2.05;;;1.58;;
25237;SDS011;13185;50.872;5.306;2022-07-06T03:07:48;1.90;;;1.70;;
25237;SDS011;13185;50.872;5.306;2022-07-06T03:10:14;4.07;;;1.40;;
25237;SDS011;13185;50.872;5.306;2022-07-06T03:12:40;2.63;;;1.42;;
25237;SDS011;13185;50.872;5.306;2022-07-06T03:15:05;3.10;;;1.45;;
25237;SDS011;13185;50.872;5.306;2022-07-06T03:17:35;2.72;;;1.63;;
25237;SDS011;13185;50.872;5.306;2022-07-06T03:20:01;2.72;;;1.40;;
25237;SDS011;13185;50.872;5.306;2022-07-06T03:22:27;5.07;;;1.73;;
25237;SDS011;13185;50.872;5.306;2022-07-06T03:24:54;2.95;;;1.60;;
25237;SDS011;13185;50.872;5.306;2022-07-06T03:27:20;4.03;;;1.58;;
25237;SDS011;13185;50.872;5.306;2022-07-06T03:29:45;2.40;;;1.65;;
25237;SDS011;13185;50.872;5.306;2022-07-06T03:32:11;1.55;;;1.17;;
25237;SDS011;13185;50.872;5.306;2022-07-06T03:34:36;2.03;;;1.73;;
25237;SDS011;13185;50.872;5.306;2022-07-06T03:37:02;3.55;;;1.83;;
25237;SDS011;13185;50.872;5.306;2022-07-06T03:39:28;3.80;;;2.00;;
25237;SDS011;13185;50.872;5.306;2022-07-06T03:41:56;4.40;;;1.80;;
25237;SDS011;13185;50.872;5.306;2022-07-06T03:44:21;3.00;;;1.70;;
25237;SDS011;13185;50.872;5.306;2022-07-06T03:46:47;2.15;;;1.48;;
25237;SDS011;13185;50.872;5.306;2022-07-06T03:49:13;2.38;;;1.70;;
25237;SDS011;13185;50.872;5.306;2022-07-06T03:51:38;2.80;;;1.58;;
25237;SDS011;13185;50.872;5.306;2022-07-06T03:54:04;4.78;;;2.00;;
25237;SDS011;13185;50.872;5.306;2022-07-06T03:56:30;2.63;;;1.60;;
25237;SDS011;13185;50.872;5.306;2022-07-06T03:59:05;3.05;;;1.80;;
25237;SDS011;13185;50.872;5.306;2022-07-06T04:01:35;3.33;;;1.70;;
25237;SDS011;13185;50.872;5.306;2022-07-06T04:04:00;3.53;;;2.05;;
25237;SDS011;13185;50.872;5.306;2022-07-06T04:06:26;3.80;;;1.52;;
25237;SDS011;13185;50.872;5.306;2022-07-06T04:08:52;3.20;;;1.90;;
25237;SDS011;13185;50.872;5.306;2022-07-06T04:11:17;3.55;;;1.70;;
25237;SDS011;13185;50.872;5.306;2022-07-06T04:13:43;5.07;;;2.28;;
25237;SDS011;13185;50.872;5.306;2022-07-06T04:16:09;5.22;;;2.05;;
25237;SDS011;13185;50.872;5.306;2022-07-06T04:18:35;2.00;;;1.63;;
25237;SDS011;13185;50.872;5.306;2022-07-06T04:21:01;4.60;;;2.10;;
25237;SDS011;13185;50.872;5.306;2022-07-06T04:23:30;2.60;;;1.98;;
25237;SDS011;13185;50.872;5.306;2022-07-06T04:25:56;7.38;;;2.10;;
25237;SDS011;13185;50.872;5.306;2022-07-06T04:28:23;2.47;;;2.03;;
25237;SDS011;13185;50.872;5.306;2022-07-06T04:30:48;3.03;;;2.00;;
25237;SDS011;13185;50.872;5.306;2022-07-06T04:33:17;5.32;;;2.55;;
25237;SDS011;13185;50.872;5.306;2022-07-06T04:35:44;2.47;;;1.98;;
25237;SDS011;13185;50.872;5.306;2022-07-06T04:38:09;3.53;;;2.10;;
25237;SDS011;13185;50.872;5.306;2022-07-06T04:40:35;3.05;;;1.95;;
25237;SDS011;13185;50.872;5.306;2022-07-06T04:43:05;6.47;;;2.10;;
25237;SDS011;13185;50.872;5.306;2022-07-06T04:45:32;4.15;;;2.15;;
25237;SDS011;13185;50.872;5.306;2022-07-06T04:47:59;4.78;;;2.53;;
25237;SDS011;13185;50.872;5.306;2022-07-06T04:50:25;2.67;;;2.30;;
25237;SDS011;13185;50.872;5.306;2022-07-06T04:52:52;4.13;;;2.55;;
25237;SDS011;13185;50.872;5.306;2022-07-06T04:55:17;5.82;;;2.50;;
25237;SDS011;13185;50.872;5.306;2022-07-06T04:57:44;5.75;;;3.10;;
25237;SDS011;13185;50.872;5.306;2022-07-06T05:00:12;5.55;;;2.75;;
25237;SDS011;13185;50.872;5.306;2022-07-06T05:02:37;4.18;;;3.05;;
25237;SDS011;13185;50.872;5.306;2022-07-06T05:05:03;4.35;;;2.97;;
25237;SDS011;13185;50.872;5.306;2022-07-06T05:07:30;4.45;;;3.00;;
25237;SDS011;13185;50.872;5.306;2022-07-06T05:09:58;4.38;;;3.08;;
25237;SDS011;13185;50.872;5.306;2022-07-06T05:12:24;5.22;;;3.28;;
25237;SDS011;13185;50.872;5.306;2022-07-06T05:14:49;5.28;;;3.80;;
25237;SDS011;13185;50.872;5.306;2022-07-06T05:17:15;7.88;;;4.05;;
25237;SDS011;13185;50.872;5.306;2022-07-06T05:19:41;5.50;;;3.95;;
25237;SDS011;13185;50.872;5.306;2022-07-06T05:22:07;11.75;;;4.43;;
25237;SDS011;13185;50.872;5.306;2022-07-06T05:24:33;7.28;;;4.45;;
25237;SDS011;13185;50.872;5.306;2022-07-06T05:26:59;6.15;;;3.97;;
25237;SDS011;13185;50.872;5.306;2022-07-06T05:29:25;6.57;;;3.97;;
25237;SDS011;13185;50.872;5.306;2022-07-06T05:31:51;5.60;;;3.70;;
25237;SDS011;13185;50.872;5.306;2022-07-06T05:34:17;7.38;;;4.45;;
25237;SDS011;13185;50.872;5.306;2022-07-06T05:36:43;5.30;;;3.70;;
25237;SDS011;13185;50.872;5.306;2022-07-06T05:39:10;5.93;;;3.95;;
25237;SDS011;13185;50.872;5.306;2022-07-06T05:41:35;8.60;;;4.07;;
25237;SDS011;13185;50.872;5.306;2022-07-06T05:44:01;7.32;;;4.35;;
25237;SDS011;13185;50.872;5.306;2022-07-06T05:46:27;7.35;;;3.92;;
25237;SDS011;13185;50.872;5.306;2022-07-06T05:48:53;6.35;;;4.13;;
25237;SDS011;13185;50.872;5.306;2022-07-06T05:51:37;7.18;;;4.10;;
25237;SDS011;13185;50.872;5.306;2022-07-06T05:54:03;6.90;;;4.28;;
25237;SDS011;13185;50.872;5.306;2022-07-06T05:56:28;5.80;;;4.13;;
25237;SDS011;13185;50.872;5.306;2022-07-06T05:58:54;4.25;;;3.83;;
25237;SDS011;13185;50.872;5.306;2022-07-06T06:01:19;14.70;;;4.45;;
25237;SDS011;13185;50.872;5.306;2022-07-06T06:03:54;5.65;;;3.60;;
25237;SDS011;13185;50.872;5.306;2022-07-06T06:06:19;6.70;;;4.28;;
25237;SDS011;13185;50.872;5.306;2022-07-06T06:08:45;6.93;;;4.28;;
25237;SDS011;13185;50.872;5.306;2022-07-06T06:11:11;5.28;;;3.55;;
25237;SDS011;13185;50.872;5.306;2022-07-06T06:13:38;5.85;;;4.15;;
25237;SDS011;13185;50.872;5.306;2022-07-06T06:16:03;5.55;;;3.65;;
25237;SDS011;13185;50.872;5.306;2022-07-06T06:18:29;5.72;;;3.47;;
25237;SDS011;13185;50.872;5.306;2022-07-06T06:20:55;6.68;;;4.30;;
25237;SDS011;13185;50.872;5.306;2022-07-06T06:23:20;6.80;;;4.53;;
25237;SDS011;13185;50.872;5.306;2022-07-06T06:25:46;5.82;;;3.70;;
25237;SDS011;13185;50.872;5.306;2022-07-06T06:28:13;10.18;;;3.90;;
25237;SDS011;13185;50.872;5.306;2022-07-06T06:30:39;10.32;;;4.07;;
25237;SDS011;13185;50.872;5.306;2022-07-06T06:33:14;8.02;;;3.85;;
25237;SDS011;13185;50.872;5.306;2022-07-06T06:35:48;9.50;;;3.13;;
25237;SDS011;13185;50.872;5.306;2022-07-06T06:38:15;5.38;;;2.90;;
25237;SDS011;13185;50.872;5.306;2022-07-06T06:40:41;4.65;;;2.50;;
25237;SDS011;13185;50.872;5.306;2022-07-06T06:43:08;5.13;;;1.80;;
25237;SDS011;13185;50.872;5.306;2022-07-06T06:45:40;5.10;;;2.10;;
25237;SDS011;13185;50.872;5.306;2022-07-06T06:48:06;4.90;;;2.22;;
25237;SDS011;13185;50.872;5.306;2022-07-06T06:50:31;5.00;;;2.10;;
25237;SDS011;13185;50.872;5.306;2022-07-06T06:52:57;5.25;;;2.15;;
25237;SDS011;13185;50.872;5.306;2022-07-06T06:55:23;3.65;;;2.00;;
25237;SDS011;13185;50.872;5.306;2022-07-06T06:57:48;3.03;;;1.92;;
25237;SDS011;13185;50.872;5.306;2022-07-06T07:00:14;3.45;;;2.22;;
25237;SDS011;13185;50.872;5.306;2022-07-06T07:02:40;6.25;;;2.40;;
25237;SDS011;13185;50.872;5.306;2022-07-06T07:05:05;3.70;;;2.20;;
25237;SDS011;13185;50.872;5.306;2022-07-06T07:07:31;2.75;;;1.42;;
25237;SDS011;13185;50.872;5.306;2022-07-06T07:09:58;4.45;;;2.17;;
25237;SDS011;13185;50.872;5.306;2022-07-06T07:12:23;1.83;;;1.25;;
25237;SDS011;13185;50.872;5.306;2022-07-06T07:14:49;3.25;;;1.05;;
25237;SDS011;13185;50.872;5.306;2022-07-06T07:17:14;5.53;;;1.70;;
25237;SDS011;13185;50.872;5.306;2022-07-06T07:19:40;4.20;;;1.40;;
25237;SDS011;13185;50.872;5.306;2022-07-06T07:22:06;4.40;;;1.48;;
25237;SDS011;13185;50.872;5.306;2022-07-06T07:24:31;4.03;;;1.23;;
25237;SDS011;13185;50.872;5.306;2022-07-06T07:26:57;3.05;;;0.95;;
25237;SDS011;13185;50.872;5.306;2022-07-06T07:29:22;2.40;;;0.90;;
25237;SDS011;13185;50.872;5.306;2022-07-06T07:31:48;3.45;;;1.20;;
25237;SDS011;13185;50.872;5.306;2022-07-06T07:34:13;1.80;;;0.80;;
25237;SDS011;13185;50.872;5.306;2022-07-06T07:36:39;1.08;;;0.60;;
25237;SDS011;13185;50.872;5.306;2022-07-06T07:39:05;3.53;;;0.77;;
25237;SDS011;13185;50.872;5.306;2022-07-06T07:41:30;2.80;;;0.70;;
25237;SDS011;13185;50.872;5.306;2022-07-06T07:43:56;2.88;;;0.60;;
25237;SDS011;13185;50.872;5.306;2022-07-06T07:46:23;4.70;;;0.93;;
25237;SDS011;13185;50.872;5.306;2022-07-06T07:48:50;3.50;;;0.80;;
25237;SDS011;13185;50.872;5.306;2022-07-06T07:51:20;1.95;;;0.60;;
25237;SDS011;13185;50.872;5.306;2022-07-06T07:53:49;1.67;;;0.52;;
25237;SDS011;13185;50.872;5.306;2022-07-06T07:56:17;3.72;;;0.80;;
25237;SDS011;13185;50.872;5.306;2022-07-06T07:58:47;1.38;;;0.57;;
25237;SDS011;13185;50.872;5.306;2022-07-06T08:01:17;2.75;;;0.50;;
25237;SDS011;13185;50.872;5.306;2022-07-06T08:03:45;2.33;;;0.40;;
25237;SDS011;13185;50.872;5.306;2022-07-06T08:06:10;2.05;;;0.65;;
25237;SDS011;13185;50.872;5.306;2022-07-06T08:08:36;1.92;;;0.50;;
25237;SDS011;13185;50.872;5.306;2022-07-06T08:11:02;1.63;;;0.30;;
25237;SDS011;13185;50.872;5.306;2022-07-06T08:13:28;2.85;;;0.55;;
25237;SDS011;13185;50.872;5.306;2022-07-06T08:15:54;1.52;;;0.30;;
25237;SDS011;13185;50.872;5.306;2022-07-06T08:18:20;1.75;;;0.30;;
25237;SDS011;13185;50.872;5.306;2022-07-06T08:20:45;0.77;;;0.20;;
25237;SDS011;13185;50.872;5.306;2022-07-06T08:23:11;3.42;;;0.40;;
25237;SDS011;13185;50.872;5.306;2022-07-06T08:25:36;2.10;;;0.38;;
25237;SDS011;13185;50.872;5.306;2022-07-06T08:28:02;1.85;;;0.50;;
25237;SDS011;13185;50.872;5.306;2022-07-06T08:30:28;0.47;;;0.28;;
25237;SDS011;13185;50.872;5.306;2022-07-06T08:32:56;4.35;;;0.50;;
25237;SDS011;13185;50.872;5.306;2022-07-06T08:35:24;1.20;;;0.25;;
25237;SDS011;13185;50.872;5.306;2022-07-06T08:37:52;2.92;;;0.80;;
25237;SDS011;13185;50.872;5.306;2022-07-06T08:40:22;1.90;;;0.30;;
25237;SDS011;13185;50.872;5.306;2022-07-06T08:42:51;2.30;;;0.22;;
25237;SDS011;13185;50.872;5.306;2022-07-06T08:45:21;2.50;;;0.30;;
25237;SDS011;13185;50.872;5.306;2022-07-06T08:47:49;1.58;;;0.40;;
25237;SDS011;13185;50.872;5.306;2022-07-06T08:50:15;2.83;;;0.60;;
25237;SDS011;13185;50.872;5.306;2022-07-06T08:52:41;2.20;;;0.38;;
25237;SDS011;13185;50.872;5.306;2022-07-06T08:55:10;4.00;;;0.60;;
25237;SDS011;13185;50.872;5.306;2022-07-06T08:57:37;1.73;;;0.50;;
25237;SDS011;13185;50.872;5.306;2022-07-06T09:00:10;3.15;;;0.52;;
25237;SDS011;13185;50.872;5.306;2022-07-06T09:02:35;2.78;;;0.70;;
25237;SDS011;13185;50.872;5.306;2022-07-06T09:05:02;3.45;;;0.75;;
25237;SDS011;13185;50.872;5.306;2022-07-06T09:07:29;2.20;;;0.95;;
25237;SDS011;13185;50.872;5.306;2022-07-06T09:09:55;0.93;;;0.30;;
25237;SDS011;13185;50.872;5.306;2022-07-06T09:12:25;2.70;;;0.50;;
25237;SDS011;13185;50.872;5.306;2022-07-06T09:14:51;0.90;;;0.30;;
25237;SDS011;13185;50.872;5.306;2022-07-06T09:17:19;1.58;;;0.32;;
25237;SDS011;13185;50.872;5.306;2022-07-06T09:19:45;2.15;;;0.40;;
25237;SDS011;13185;50.872;5.306;2022-07-06T09:22:13;2.38;;;0.28;;
25237;SDS011;13185;50.872;5.306;2022-07-06T09:27:40;2.85;;;0.50;;
25237;SDS011;13185;50.872;5.306;2022-07-06T09:30:12;2.10;;;0.65;;
25237;SDS011;13185;50.872;5.306;2022-07-06T09:32:40;2.55;;;0.40;;
25237;SDS011;13185;50.872;5.306;2022-07-06T09:40:30;2.50;;;0.52;;
25237;SDS011;13185;50.872;5.306;2022-07-06T09:45:37;2.17;;;0.50;;
25237;SDS011;13185;50.872;5.306;2022-07-06T09:48:05;2.28;;;0.40;;
25237;SDS011;13185;50.872;5.306;2022-07-06T09:50:37;2.08;;;0.40;;
25237;SDS011;13185;50.872;5.306;2022-07-06T09:53:06;3.80;;;0.50;;
25237;SDS011;13185;50.872;5.306;2022-07-06T09:55:32;2.60;;;0.50;;
25237;SDS011;13185;50.872;5.306;2022-07-06T09:57:58;1.98;;;0.40;;
25237;SDS011;13185;50.872;5.306;2022-07-06T10:00:25;3.17;;;0.60;;
25237;SDS011;13185;50.872;5.306;2022-07-06T10:02:51;3.28;;;0.70;;
25237;SDS011;13185;50.872;5.306;2022-07-06T10:05:17;2.75;;;0.70;;
25237;SDS011;13185;50.872;5.306;2022-07-06T10:07:45;1.95;;;0.68;;
25237;SDS011;13185;50.872;5.306;2022-07-06T10:10:15;1.88;;;0.47;;
25237;SDS011;13185;50.872;5.306;2022-07-06T10:12:42;1.70;;;0.50;;
25237;SDS011;13185;50.872;5.306;2022-07-06T10:15:09;3.10;;;0.60;;
25237;SDS011;13185;50.872;5.306;2022-07-06T10:17:37;1.05;;;0.32;;
25237;SDS011;13185;50.872;5.306;2022-07-06T10:20:06;2.92;;;0.88;;
25237;SDS011;13185;50.872;5.306;2022-07-06T10:22:32;1.90;;;0.45;;
25237;SDS011;13185;50.872;5.306;2022-07-06T10:24:59;1.75;;;0.30;;
25237;SDS011;13185;50.872;5.306;2022-07-06T10:27:28;3.50;;;0.50;;
25237;SDS011;13185;50.872;5.306;2022-07-06T10:29:54;2.40;;;0.50;;
25237;SDS011;13185;50.872;5.306;2022-07-06T10:32:20;0.95;;;0.30;;
25237;SDS011;13185;50.872;5.306;2022-07-06T10:34:48;2.80;;;0.50;;
25237;SDS011;13185;50.872;5.306;2022-07-06T10:37:21;1.42;;;0.52;;
25237;SDS011;13185;50.872;5.306;2022-07-06T10:39:51;1.67;;;0.63;;
25237;SDS011;13185;50.872;5.306;2022-07-06T10:42:46;1.10;;;0.47;;
25237;SDS011;13185;50.872;5.306;2022-07-06T10:50:47;3.00;;;0.60;;
25237;SDS011;13185;50.872;5.306;2022-07-06T10:53:24;2.90;;;0.68;;
25237;SDS011;13185;50.872;5.306;2022-07-06T10:55:52;2.83;;;0.75;;
25237;SDS011;13185;50.872;5.306;2022-07-06T11:01:05;1.30;;;0.50;;
25237;SDS011;13185;50.872;5.306;2022-07-06T11:03:36;2.22;;;0.70;;
25237;SDS011;13185;50.872;5.306;2022-07-06T11:06:08;4.38;;;0.90;;
25237;SDS011;13185;50.872;5.306;2022-07-06T11:08:44;1.83;;;0.70;;
25237;SDS011;13185;50.872;5.306;2022-07-06T11:11:15;2.35;;;0.50;;
25237;SDS011;13185;50.872;5.306;2022-07-06T11:13:55;2.35;;;0.75;;
25237;SDS011;13185;50.872;5.306;2022-07-06T11:16:35;2.83;;;0.40;;
25237;SDS011;13185;50.872;5.306;2022-07-06T11:19:26;3.72;;;0.70;;
25237;SDS011;13185;50.872;5.306;2022-07-06T11:21:52;2.72;;;1.00;;
25237;SDS011;13185;50.872;5.306;2022-07-06T11:26:52;3.10;;;1.02;;
25237;SDS011;13185;50.872;5.306;2022-07-06T11:29:19;2.10;;;0.65;;
25237;SDS011;13185;50.872;5.306;2022-07-06T11:31:47;1.85;;;0.70;;
25237;SDS011;13185;50.872;5.306;2022-07-06T11:34:18;3.28;;;0.85;;
25237;SDS011;13185;50.872;5.306;2022-07-06T11:37:01;2.75;;;0.70;;
25237;SDS011;13185;50.872;5.306;2022-07-06T11:39:30;1.20;;;0.80;;
25237;SDS011;13185;50.872;5.306;2022-07-06T11:41:57;3.35;;;0.65;;
25237;SDS011;13185;50.872;5.306;2022-07-06T11:44:25;3.00;;;1.08;;
25237;SDS011;13185;50.872;5.306;2022-07-06T11:46:53;2.58;;;0.68;;
25237;SDS011;13185;50.872;5.306;2022-07-06T11:49:24;4.47;;;1.00;;
25237;SDS011;13185;50.872;5.306;2022-07-06T11:51:50;6.72;;;0.85;;
25237;SDS011;13185;50.872;5.306;2022-07-06T11:54:16;4.43;;;0.95;;
25237;SDS011;13185;50.872;5.306;2022-07-06T11:56:50;3.00;;;0.80;;
25237;SDS011;13185;50.872;5.306;2022-07-06T11:59:24;5.30;;;1.10;;
25237;SDS011;13185;50.872;5.306;2022-07-06T12:04:45;3.92;;;1.25;;
25237;SDS011;13185;50.872;5.306;2022-07-06T12:07:12;2.17;;;0.75;;
25237;SDS011;13185;50.872;5.306;2022-07-06T12:09:40;11.27;;;1.55;;
25237;SDS011;13185;50.872;5.306;2022-07-06T12:12:07;5.15;;;0.90;;
25237;SDS011;13185;50.872;5.306;2022-07-06T12:14:34;3.10;;;0.85;;
25237;SDS011;13185;50.872;5.306;2022-07-06T12:17:08;7.22;;;1.45;;
25237;SDS011;13185;50.872;5.306;2022-07-06T12:19:35;5.60;;;1.17;;
25237;SDS011;13185;50.872;5.306;2022-07-06T12:22:02;5.45;;;0.93;;
25237;SDS011;13185;50.872;5.306;2022-07-06T12:24:29;8.35;;;1.02;;
25237;SDS011;13185;50.872;5.306;2022-07-06T12:26:56;4.28;;;0.80;;
25237;SDS011;13185;50.872;5.306;2022-07-06T12:29:22;7.28;;;1.60;;
25237;SDS011;13185;50.872;5.306;2022-07-06T12:31:49;3.10;;;1.20;;
25237;SDS011;13185;50.872;5.306;2022-07-06T12:34:15;4.05;;;1.50;;
25237;SDS011;13185;50.872;5.306;2022-07-06T12:36:53;8.85;;;1.42;;
25237;SDS011;13185;50.872;5.306;2022-07-06T12:39:20;2.15;;;0.70;;
25237;SDS011;13185;50.872;5.306;2022-07-06T12:41:51;3.60;;;1.15;;
25237;SDS011;13185;50.872;5.306;2022-07-06T12:44:18;6.47;;;1.00;;
25237;SDS011;13185;50.872;5.306;2022-07-06T12:46:46;4.22;;;1.08;;
25237;SDS011;13185;50.872;5.306;2022-07-06T12:49:17;4.28;;;1.05;;
25237;SDS011;13185;50.872;5.306;2022-07-06T12:52:09;3.28;;;1.00;;
25237;SDS011;13185;50.872;5.306;2022-07-06T12:54:43;3.03;;;0.88;;
25237;SDS011;13185;50.872;5.306;2022-07-06T12:59:43;4.40;;;0.90;;
25237;SDS011;13185;50.872;5.306;2022-07-06T13:02:20;3.58;;;0.70;;
25237;SDS011;13185;50.872;5.306;2022-07-06T13:04:57;3.83;;;1.17;;
25237;SDS011;13185;50.872;5.306;2022-07-06T13:07:28;5.05;;;1.10;;
25237;SDS011;13185;50.872;5.306;2022-07-06T13:09:57;3.05;;;0.82;;
25237;SDS011;13185;50.872;5.306;2022-07-06T13:12:23;5.97;;;1.10;;
25237;SDS011;13185;50.872;5.306;2022-07-06T13:14:50;7.88;;;1.10;;
25237;SDS011;13185;50.872;5.306;2022-07-06T13:17:16;3.33;;;0.80;;
25237;SDS011;13185;50.872;5.306;2022-07-06T13:19:42;2.58;;;0.80;;
25237;SDS011;13185;50.872;5.306;2022-07-06T13:22:07;2.80;;;0.82;;
25237;SDS011;13185;50.872;5.306;2022-07-06T13:24:33;3.75;;;1.00;;
25237;SDS011;13185;50.872;5.306;2022-07-06T13:26:59;3.83;;;0.88;;
25237;SDS011;13185;50.872;5.306;2022-07-06T13:29:24;3.42;;;1.10;;
25237;SDS011;13185;50.872;5.306;2022-07-06T13:31:50;2.03;;;0.90;;
25237;SDS011;13185;50.872;5.306;2022-07-06T13:34:18;4.13;;;0.85;;
25237;SDS011;13185;50.872;5.306;2022-07-06T13:36:43;5.95;;;1.05;;
25237;SDS011;13185;50.872;5.306;2022-07-06T13:39:09;2.78;;;0.82;;
25237;SDS011;13185;50.872;5.306;2022-07-06T13:41:35;1.75;;;0.60;;
25237;SDS011;13185;50.872;5.306;2022-07-06T13:44:01;4.07;;;1.15;;
25237;SDS011;13185;50.872;5.306;2022-07-06T13:46:28;3.60;;;0.95;;
25237;SDS011;13185;50.872;5.306;2022-07-06T13:48:55;2.70;;;0.93;;
25237;SDS011;13185;50.872;5.306;2022-07-06T13:51:22;6.53;;;0.95;;
25237;SDS011;13185;50.872;5.306;2022-07-06T13:53:48;2.90;;;0.75;;
25237;SDS011;13185;50.872;5.306;2022-07-06T13:56:14;3.88;;;0.82;;
25237;SDS011;13185;50.872;5.306;2022-07-06T13:58:41;4.45;;;1.02;;
25237;SDS011;13185;50.872;5.306;2022-07-06T14:01:07;3.53;;;0.68;;
25237;SDS011;13185;50.872;5.306;2022-07-06T14:03:32;4.72;;;0.90;;
25237;SDS011;13185;50.872;5.306;2022-07-06T14:05:58;4.25;;;0.80;;
25237;SDS011;13185;50.872;5.306;2022-07-06T14:08:27;3.13;;;0.90;;
25237;SDS011;13185;50.872;5.306;2022-07-06T14:10:53;9.50;;;1.60;;
25237;SDS011;13185;50.872;5.306;2022-07-06T14:13:19;3.30;;;0.60;;
25237;SDS011;13185;50.872;5.306;2022-07-06T14:15:45;4.25;;;0.68;;
25237;SDS011;13185;50.872;5.306;2022-07-06T14:18:11;1.83;;;0.75;;
25237;SDS011;13185;50.872;5.306;2022-07-06T14:20:37;4.07;;;1.00;;
25237;SDS011;13185;50.872;5.306;2022-07-06T14:23:02;4.38;;;0.98;;
25237;SDS011;13185;50.872;5.306;2022-07-06T14:25:28;2.75;;;0.70;;
25237;SDS011;13185;50.872;5.306;2022-07-06T14:27:53;4.35;;;0.95;;
25237;SDS011;13185;50.872;5.306;2022-07-06T14:30:19;5.35;;;1.27;;
25237;SDS011;13185;50.872;5.306;2022-07-06T14:32:44;2.22;;;0.75;;
25237;SDS011;13185;50.872;5.306;2022-07-06T14:35:10;4.05;;;1.23;;
25237;SDS011;13185;50.872;5.306;2022-07-06T14:37:36;2.67;;;0.70;;
25237;SDS011;13185;50.872;5.306;2022-07-06T14:40:02;4.18;;;1.17;;
25237;SDS011;13185;50.872;5.306;2022-07-06T14:42:28;3.58;;;0.80;;
25237;SDS011;13185;50.872;5.306;2022-07-06T14:44:54;2.40;;;0.70;;
25237;SDS011;13185;50.872;5.306;2022-07-06T14:47:20;3.80;;;0.80;;
25237;SDS011;13185;50.872;5.306;2022-07-06T14:49:45;3.60;;;0.98;;
25237;SDS011;13185;50.872;5.306;2022-07-06T14:52:10;2.63;;;1.02;;
25237;SDS011;13185;50.872;5.306;2022-07-06T14:54:36;4.47;;;1.17;;
25237;SDS011;13185;50.872;5.306;2022-07-06T14:57:02;8.48;;;1.40;;
25237;SDS011;13185;50.872;5.306;2022-07-06T14:59:29;3.45;;;0.80;;
25237;SDS011;13185;50.872;5.306;2022-07-06T15:01:55;3.25;;;0.90;;
25237;SDS011;13185;50.872;5.306;2022-07-06T15:04:21;3.45;;;1.08;;
25237;SDS011;13185;50.872;5.306;2022-07-06T15:06:47;4.80;;;0.70;;
25237;SDS011;13185;50.872;5.306;2022-07-06T15:09:13;5.78;;;0.93;;
25237;SDS011;13185;50.872;5.306;2022-07-06T15:11:38;5.55;;;0.88;;
25237;SDS011;13185;50.872;5.306;2022-07-06T15:14:04;4.40;;;0.80;;